Time;durP1;ratioP1;P1;durP2;ratioP2;P2;SDS_P1;SDS_P2;PMS_P1;PMS_P2;Temp;Humidity;BMP_temperature;BMP_pressure;BME280_temperature;BME280_humidity;BME280_pressure;Samples;Min_cycle;Max_cycle;Signal;HPM_P1;HPM_P2
2022/11/03 00:00:54;;;;;;;11.05;2.20;;;11.50;99.90;;;;;;5001238;28;20042;-67
2022/11/03 00:03:20;;;;;;;9.60;2.05;;;11.40;99.90;;;;;;5001694;28;20041;-68
2022/11/03 00:06:04;;;;;;;5.50;1.50;;;11.50;99.90;;;;;;5001326;28;20392;-63
2022/11/03 00:08:40;;;;;;;9.32;2.28;;;11.50;99.90;;;;;;5001124;28;20553;-67
2022/11/03 00:11:10;;;;;;;9.65;2.55;;;11.50;99.90;;;;;;5002038;28;20542;-65
2022/11/03 00:13:38;;;;;;;10.18;2.50;;;11.50;99.90;;;;;;5001743;28;20046;-64
2022/11/03 00:16:04;;;;;;;9.18;2.50;;;11.40;99.90;;;;;;5000358;28;20121;-67
2022/11/03 00:18:30;;;;;;;8.85;1.98;;;11.40;99.90;;;;;;5003467;28;20049;-64
2022/11/03 00:20:57;;;;;;;10.13;2.50;;;11.40;99.90;;;;;;5021735;28;20042;-67
2022/11/03 00:23:25;;;;;;;3.92;1.25;;;11.50;99.90;;;;;;5021320;28;20045;-66
2022/11/03 00:25:51;;;;;;;9.25;2.17;;;11.50;99.90;;;;;;5003002;28;20081;-63
2022/11/03 00:28:17;;;;;;;6.88;2.00;;;11.40;99.90;;;;;;5003797;28;20088;-68
2022/11/03 00:30:42;;;;;;;12.45;2.25;;;11.50;99.90;;;;;;5020823;28;20053;-65
2022/11/03 00:33:08;;;;;;;8.40;2.05;;;11.50;99.90;;;;;;5003165;28;20045;-64
2022/11/03 00:35:34;;;;;;;8.85;2.78;;;11.50;99.90;;;;;;5021013;28;20264;-66
2022/11/03 00:37:59;;;;;;;10.02;2.47;;;11.50;99.90;;;;;;5020676;28;20038;-64
2022/11/03 00:40:25;;;;;;;8.15;2.35;;;11.50;99.90;;;;;;5021138;28;20041;-67
2022/11/03 00:42:50;;;;;;;9.98;2.10;;;11.50;99.90;;;;;;5003484;28;20681;-64
2022/11/03 00:45:16;;;;;;;8.65;2.17;;;11.50;99.90;;;;;;5022433;28;20033;-68
2022/11/03 00:48:28;;;;;;;12.00;2.80;;;11.50;99.90;;;;;;5021312;28;20049;-65
2022/11/03 00:50:27;;;;;;;10.50;2.30;;;11.50;99.90;;;;;;5022677;28;20052;-64
2022/11/03 00:52:53;;;;;;;8.52;2.05;;;11.50;99.90;;;;;;5007881;28;20049;-67
2022/11/03 00:55:18;;;;;;;11.57;2.70;;;11.50;99.90;;;;;;5007961;28;20721;-64
2022/11/03 00:57:44;;;;;;;10.25;1.92;;;11.50;99.90;;;;;;5007224;28;20737;-67
2022/11/03 01:00:11;;;;;;;11.20;2.17;;;11.50;99.90;;;;;;5025596;28;20120;-67
2022/11/03 01:02:36;;;;;;;10.80;2.20;;;11.40;99.90;;;;;;5006873;28;20057;-67
2022/11/03 01:07:46;;;;;;;10.23;2.13;;;11.50;99.90;;;;;;5019106;28;20048;-65
2022/11/03 01:10:12;;;;;;;9.63;2.40;;;11.40;99.90;;;;;;5024508;28;20548;-67
2022/11/03 01:12:38;;;;;;;11.85;2.30;;;11.30;99.90;;;;;;5024460;28;20420;-67
2022/11/03 01:15:04;;;;;;;11.52;2.50;;;11.30;99.90;;;;;;5024974;28;20051;-65
2022/11/03 01:17:29;;;;;;;10.77;2.75;;;11.30;99.90;;;;;;5006718;28;20080;-67
2022/11/03 01:19:55;;;;;;;11.48;2.25;;;11.30;99.90;;;;;;5007186;28;20050;-67
2022/11/03 01:22:22;;;;;;;9.13;2.42;;;11.20;99.90;;;;;;5024169;28;20037;-65
2022/11/03 01:24:48;;;;;;;10.60;2.35;;;11.20;99.90;;;;;;5007759;28;20395;-67
2022/11/03 01:27:16;;;;;;;7.97;1.80;;;11.20;99.90;;;;;;5007229;28;20053;-63
2022/11/03 01:29:42;;;;;;;8.10;2.25;;;11.20;99.90;;;;;;5006691;28;20077;-67
2022/11/03 01:32:08;;;;;;;6.03;1.80;;;11.20;99.90;;;;;;5024509;28;20496;-66
2022/11/03 01:34:34;;;;;;;7.18;1.20;;;11.20;99.90;;;;;;5007191;28;20346;-67
2022/11/03 01:37:00;;;;;;;13.23;2.20;;;11.10;99.90;;;;;;5025285;28;20052;-68
2022/11/03 01:39:26;;;;;;;7.63;1.95;;;11.10;99.90;;;;;;5024060;28;20072;-64
2022/11/03 01:41:52;;;;;;;8.15;2.05;;;11.00;99.90;;;;;;5024674;28;20042;-67
2022/11/03 01:44:18;;;;;;;6.20;2.00;;;11.00;99.90;;;;;;5025031;28;20049;-67
2022/11/03 01:46:53;;;;;;;9.55;2.67;;;11.00;99.90;;;;;;5023324;28;20049;-66
2022/11/03 01:49:30;;;;;;;10.73;3.05;;;10.90;99.90;;;;;;5024220;28;20076;-66
2022/11/03 01:52:13;;;;;;;13.13;2.10;;;10.90;99.90;;;;;;5024379;28;20053;-67
2022/11/03 01:54:42;;;;;;;8.70;2.35;;;10.80;99.90;;;;;;5006630;28;20053;-67
2022/11/03 01:57:14;;;;;;;11.50;2.78;;;10.70;99.90;;;;;;5023508;28;20436;-64
2022/11/03 01:59:41;;;;;;;11.93;2.50;;;10.70;99.90;;;;;;5004993;28;20107;-66
2022/11/03 02:02:07;;;;;;;10.10;2.33;;;10.70;99.90;;;;;;5005168;28;20056;-63
2022/11/03 02:04:33;;;;;;;11.43;2.50;;;10.50;99.90;;;;;;5006066;28;20050;-67
2022/11/03 02:07:13;;;;;;;8.85;2.75;;;10.50;99.90;;;;;;5006258;28;20056;-65
2022/11/03 02:09:39;;;;;;;13.00;3.15;;;10.50;99.90;;;;;;5024005;28;20030;-65
2022/11/03 02:12:06;;;;;;;9.10;2.40;;;10.40;99.90;;;;;;5060626;23;20060;-67
2022/11/03 02:14:34;;;;;;;10.30;2.15;;;10.40;99.90;;;;;;5029967;28;20068;-66
2022/11/03 02:17:04;;;;;;;9.23;2.55;;;10.30;99.90;;;;;;5023043;28;20045;-66
2022/11/03 02:19:35;;;;;;;10.73;2.70;;;10.30;99.90;;;;;;5003308;28;20530;-67
2022/11/03 02:22:19;;;;;;;13.65;3.40;;;10.30;99.90;;;;;;5001684;28;20034;-64
2022/11/03 02:24:47;;;;;;;10.73;2.78;;;10.30;99.90;;;;;;5004291;28;20050;-67
2022/11/03 02:27:13;;;;;;;7.43;2.15;;;10.20;99.90;;;;;;5002264;28;20091;-63
2022/11/03 02:29:39;;;;;;;11.90;2.50;;;10.30;99.90;;;;;;5002780;28;20091;-66
2022/11/03 02:32:20;;;;;;;7.18;2.15;;;10.20;99.90;;;;;;5003123;28;20034;-67
2022/11/03 02:34:54;;;;;;;9.20;2.70;;;10.30;99.90;;;;;;5003702;28;20481;-64
2022/11/03 02:37:24;;;;;;;10.38;2.95;;;10.40;99.90;;;;;;5004442;28;20096;-67
2022/11/03 02:40:05;;;;;;;10.27;2.40;;;10.30;99.90;;;;;;5005295;28;20120;-65
2022/11/03 02:42:31;;;;;;;12.27;2.95;;;10.30;99.90;;;;;;5002376;28;20100;-68
2022/11/03 02:45:00;;;;;;;12.82;2.65;;;10.30;99.90;;;;;;5003484;28;20038;-65
2022/11/03 02:47:29;;;;;;;11.15;2.88;;;10.40;99.90;;;;;;5001947;28;20073;-66
2022/11/03 02:49:55;;;;;;;8.68;1.83;;;10.40;99.90;;;;;;5003111;28;20144;-64
2022/11/03 02:52:38;;;;;;;11.57;3.08;;;10.30;99.90;;;;;;5003968;28;20053;-68
2022/11/03 02:55:36;;;;;;;8.57;2.60;;;10.50;99.90;;;;;;5002857;28;20041;-64
2022/11/03 02:58:18;;;;;;;13.68;3.05;;;10.50;99.90;;;;;;5002147;28;20084;-68
2022/11/03 03:00:53;;;;;;;9.52;2.35;;;10.50;99.90;;;;;;5002241;28;20050;-68
2022/11/03 03:03:27;;;;;;;10.20;2.47;;;10.40;99.90;;;;;;5002992;28;20042;-66
2022/11/03 03:05:59;;;;;;;13.57;3.40;;;10.40;99.90;;;;;;5011383;28;20052;-67
2022/11/03 03:08:25;;;;;;;10.75;2.65;;;10.50;99.90;;;;;;5004418;28;20042;-65
2022/11/03 03:10:52;;;;;;;10.27;2.60;;;10.40;99.90;;;;;;5003961;28;20046;-67
2022/11/03 03:13:21;;;;;;;9.93;2.78;;;10.30;99.90;;;;;;5002015;28;20125;-66
2022/11/03 03:15:56;;;;;;;10.75;3.00;;;10.50;99.90;;;;;;5002703;28;20120;-67
2022/11/03 03:18:40;;;;;;;9.48;3.05;;;10.30;99.90;;;;;;5002649;28;20092;-67
2022/11/03 03:21:21;;;;;;;10.10;2.83;;;10.40;99.90;;;;;;5001703;28;20046;-66
2022/11/03 03:23:57;;;;;;;12.50;2.85;;;10.40;99.90;;;;;;5002441;28;20053;-65
2022/11/03 03:26:31;;;;;;;12.15;2.83;;;10.40;99.90;;;;;;5002122;28;20489;-64
2022/11/03 03:29:17;;;;;;;;;;;10.40;99.90;;;;;;4985688;28;20104;-67
2022/11/03 03:31:50;;;;;;;7.95;2.45;;;10.40;99.90;;;;;;4988032;28;19921;-67
2022/11/03 03:34:18;;;;;;;9.68;2.50;;;10.50;99.90;;;;;;5002224;28;20125;-66
2022/11/03 03:36:47;;;;;;;11.35;2.80;;;10.40;99.90;;;;;;5002804;28;20046;-67
2022/11/03 03:39:15;;;;;;;8.70;2.20;;;10.40;99.90;;;;;;4984085;28;20042;-68
2022/11/03 03:41:43;;;;;;;8.25;2.63;;;10.40;99.90;;;;;;5003035;28;20128;-66
2022/11/03 03:44:11;;;;;;;10.32;2.55;;;10.50;99.90;;;;;;5003185;28;20104;-67
2022/11/03 03:46:42;;;;;;;7.45;2.35;;;10.40;99.90;;;;;;5001298;28;20050;-67
2022/11/03 03:49:08;;;;;;;13.43;3.08;;;10.40;99.90;;;;;;5002530;28;20437;-65
2022/11/03 03:51:34;;;;;;;7.78;2.15;;;10.40;99.90;;;;;;5002049;28;20082;-65
2022/11/03 03:54:00;;;;;;;8.57;2.60;;;10.50;99.90;;;;;;5001692;28;20401;-67
2022/11/03 03:56:54;;;;;;;11.55;2.80;;;10.50;99.90;;;;;;5002850;28;20104;-67
2022/11/03 03:59:19;;;;;;;6.20;1.92;;;10.40;99.90;;;;;;4991001;28;20141;-67
2022/11/03 04:01:45;;;;;;;10.75;2.80;;;10.40;99.90;;;;;;5000999;28;20723;-65
2022/11/03 04:04:11;;;;;;;6.95;2.10;;;10.40;99.90;;;;;;4984614;28;20121;-67
2022/11/03 04:06:36;;;;;;;11.00;3.25;;;10.40;99.90;;;;;;5012022;28;20511;-64
2022/11/03 04:09:02;;;;;;;11.75;3.33;;;10.30;99.90;;;;;;5001932;28;20076;-64
2022/11/03 04:22:30;;;;;;;13.33;3.10;;;10.40;99.90;;;;;;5002324;28;20153;-67
2022/11/03 04:24:57;;;;;;;12.50;2.95;;;10.20;99.90;;;;;;5001839;28;20435;-65
2022/11/03 04:27:41;;;;;;;8.85;2.22;;;10.20;99.90;;;;;;5005941;28;20080;-64
2022/11/03 04:30:17;;;;;;;10.23;2.40;;;10.30;99.90;;;;;;5005371;28;20050;-65
2022/11/03 04:32:45;;;;;;;10.05;2.63;;;10.30;99.90;;;;;;5004381;28;20046;-64
2022/11/03 04:35:20;;;;;;;12.00;2.97;;;10.20;99.90;;;;;;5006564;28;20045;-67
2022/11/03 04:38:15;;;;;;;8.98;2.28;;;10.10;99.90;;;;;;5004841;28;20050;-66
2022/11/03 04:40:52;;;;;;;7.25;2.10;;;10.20;99.90;;;;;;5001147;28;20456;-67
2022/11/03 04:43:20;;;;;;;11.95;2.90;;;10.20;99.90;;;;;;5004978;28;20057;-66
2022/11/03 04:45:47;;;;;;;10.45;2.85;;;10.00;99.90;;;;;;5004820;28;20060;-67
2022/11/03 04:48:15;;;;;;;10.57;2.55;;;10.10;99.90;;;;;;5005655;28;20958;-67
2022/11/03 04:50:42;;;;;;;11.55;2.83;;;10.10;99.90;;;;;;4988423;28;20053;-66
2022/11/03 04:53:14;;;;;;;9.10;2.28;;;10.20;99.90;;;;;;5005745;28;20054;-65
2022/11/03 04:55:44;;;;;;;12.45;2.90;;;10.00;99.90;;;;;;4987951;28;20085;-65
2022/11/03 04:58:22;;;;;;;9.38;2.55;;;10.10;99.90;;;;;;5005289;28;20088;-66
2022/11/03 05:00:59;;;;;;;7.68;2.10;;;10.20;99.90;;;;;;4987624;28;20085;-67
2022/11/03 05:03:36;;;;;;;9.15;2.67;;;10.10;99.90;;;;;;5004961;28;20077;-66
2022/11/03 05:06:23;;;;;;;11.98;2.75;;;10.20;99.90;;;;;;5016320;28;20041;-64
2022/11/03 05:08:57;;;;;;;6.25;1.85;;;10.10;99.90;;;;;;5004403;28;20057;-67
2022/11/03 05:11:36;;;;;;;11.68;2.60;;;10.20;99.90;;;;;;5005162;28;20049;-62
2022/11/03 05:14:25;;;;;;;11.30;2.70;;;10.20;99.90;;;;;;5004262;28;20148;-65
2022/11/03 05:16:54;;;;;;;12.65;2.78;;;10.20;99.90;;;;;;5003985;28;20125;-64
2022/11/03 05:19:31;;;;;;;8.07;2.28;;;10.20;99.90;;;;;;5004171;28;20049;-68
2022/11/03 05:21:59;;;;;;;8.35;2.80;;;10.20;99.90;;;;;;5005581;28;20078;-67
2022/11/03 05:24:25;;;;;;;12.00;2.42;;;10.10;99.90;;;;;;4987434;28;20112;-66
2022/11/03 05:26:53;;;;;;;9.25;2.42;;;10.20;99.90;;;;;;5005008;28;20050;-67
2022/11/03 05:29:28;;;;;;;9.73;2.70;;;10.10;99.90;;;;;;5004205;28;20432;-65
2022/11/03 05:31:55;;;;;;;13.65;2.85;;;10.10;99.90;;;;;;5003147;28;20046;-66
2022/11/03 05:34:37;;;;;;;7.65;2.00;;;10.20;99.90;;;;;;5003995;28;20037;-67
2022/11/03 05:37:05;;;;;;;9.82;2.65;;;10.10;99.90;;;;;;5004725;28;20050;-66
2022/11/03 05:39:36;;;;;;;9.23;2.45;;;10.10;99.90;;;;;;5004778;28;20042;-67
2022/11/03 05:42:17;;;;;;;7.97;2.20;;;10.20;99.90;;;;;;5005069;28;20100;-65
2022/11/03 05:44:44;;;;;;;11.57;2.72;;;10.10;99.90;;;;;;4986009;28;20468;-64
2022/11/03 05:47:20;;;;;;;10.15;2.70;;;10.10;99.90;;;;;;5004481;28;20042;-68
2022/11/03 05:49:47;;;;;;;9.27;2.60;;;10.20;99.90;;;;;;5005461;28;20053;-70
2022/11/03 05:52:21;;;;;;;10.32;2.20;;;10.10;99.90;;;;;;4987333;28;20038;-66
2022/11/03 05:54:47;;;;;;;9.23;2.65;;;10.20;99.90;;;;;;5005077;28;20378;-67
2022/11/03 05:57:14;;;;;;;8.77;2.55;;;10.20;99.90;;;;;;5004627;28;20042;-69
2022/11/03 05:59:44;;;;;;;8.02;2.00;;;10.20;99.90;;;;;;5005392;28;20440;-69
2022/11/03 06:02:38;;;;;;;10.27;2.60;;;10.20;99.90;;;;;;5003830;28;20073;-66
2022/11/03 06:05:23;;;;;;;11.18;2.92;;;10.20;99.90;;;;;;5007283;28;20533;-69
2022/11/03 06:07:51;;;;;;;8.80;2.25;;;10.20;99.90;;;;;;5019184;28;20045;-61
2022/11/03 06:10:33;;;;;;;13.80;2.08;;;10.20;99.90;;;;;;5024462;28;20045;-68
2022/11/03 06:13:03;;;;;;;10.35;3.17;;;10.20;99.90;;;;;;5024372;28;20127;-68
2022/11/03 06:15:34;;;;;;;8.25;2.22;;;10.10;99.90;;;;;;5023270;28;20045;-68
2022/11/03 06:18:20;;;;;;;8.32;2.22;;;10.20;99.90;;;;;;5024096;28;20033;-64
2022/11/03 06:20:55;;;;;;;10.07;2.58;;;10.10;99.90;;;;;;5024285;28;20050;-68
2022/11/03 06:23:22;;;;;;;7.72;2.28;;;10.20;99.90;;;;;;5006062;28;20049;-69
2022/11/03 06:25:50;;;;;;;13.88;2.90;;;10.10;99.90;;;;;;5024025;28;20046;-66
2022/11/03 06:28:29;;;;;;;8.95;2.60;;;10.10;99.90;;;;;;5023687;28;20419;-68
2022/11/03 06:30:55;;;;;;;7.18;1.98;;;10.10;99.90;;;;;;5021848;28;20056;-65
2022/11/03 06:33:27;;;;;;;7.18;2.50;;;10.10;99.90;;;;;;5023785;28;20037;-66
2022/11/03 06:36:18;;;;;;;9.65;2.58;;;10.00;99.90;;;;;;5005547;28;20395;-69
2022/11/03 06:38:49;;;;;;;10.45;2.65;;;10.00;99.90;;;;;;5012230;28;20057;-68
2022/11/03 06:41:23;;;;;;;9.98;2.63;;;10.10;99.90;;;;;;5023260;28;20442;-65
2022/11/03 06:43:49;;;;;;;11.18;2.85;;;10.00;99.90;;;;;;5022164;28;20140;-65
2022/11/03 06:46:23;;;;;;;8.13;2.38;;;10.00;99.90;;;;;;5021202;28;20080;-69
2022/11/03 06:48:51;;;;;;;12.15;2.85;;;10.00;99.90;;;;;;5021846;28;20916;-68
2022/11/03 06:51:27;;;;;;;9.02;2.25;;;10.00;99.90;;;;;;5023462;28;20099;-69
2022/11/03 06:53:57;;;;;;;12.40;2.90;;;10.00;99.90;;;;;;5023604;28;20045;-69
2022/11/03 06:56:25;;;;;;;10.13;2.58;;;10.00;99.90;;;;;;5022650;28;20099;-64
2022/11/03 06:58:52;;;;;;;5.97;1.92;;;10.00;99.90;;;;;;5023801;28;20056;-65
2022/11/03 07:01:46;;;;;;;11.40;3.08;;;10.10;99.90;;;;;;5005341;28;20070;-68
2022/11/03 07:04:18;;;;;;;9.60;2.50;;;10.00;99.90;;;;;;5017678;28;20853;-66
2022/11/03 07:06:46;;;;;;;11.00;2.47;;;10.10;99.90;;;;;;5012179;28;20049;-65
2022/11/03 07:09:18;;;;;;;11.80;3.38;;;10.10;99.90;;;;;;5022955;28;20065;-65
2022/11/03 07:11:48;;;;;;;11.25;2.72;;;10.20;99.90;;;;;;5022494;28;20045;-67
2022/11/03 07:14:20;;;;;;;11.02;2.55;;;10.20;99.90;;;;;;5022162;28;20538;-65
2022/11/03 07:16:56;;;;;;;9.52;2.53;;;10.10;99.90;;;;;;5021561;28;20084;-68
2022/11/03 07:19:32;;;;;;;7.68;2.75;;;10.30;99.90;;;;;;4989896;28;20128;-69
2022/11/03 07:22:00;;;;;;;7.93;2.47;;;10.20;99.90;;;;;;5002465;28;20042;-69
2022/11/03 07:24:28;;;;;;;8.43;1.95;;;10.20;99.90;;;;;;5003198;28;20044;-66
2022/11/03 07:27:05;;;;;;;6.75;1.83;;;10.30;99.90;;;;;;5003652;28;20107;-68
2022/11/03 07:29:31;;;;;;;10.00;2.67;;;10.40;99.90;;;;;;5002150;28;20045;-66
2022/11/03 07:31:59;;;;;;;4.32;1.20;;;10.40;99.90;;;;;;4984671;28;20056;-66
2022/11/03 07:34:30;;;;;;;11.75;2.80;;;10.50;99.90;;;;;;5002760;28;20053;-68
2022/11/03 07:36:57;;;;;;;7.88;2.22;;;10.40;99.90;;;;;;5002765;28;20053;-66
2022/11/03 07:39:25;;;;;;;7.78;2.47;;;10.50;99.90;;;;;;5001933;28;20097;-68
2022/11/03 07:41:51;;;;;;;11.30;2.85;;;10.50;99.90;;;;;;5002490;28;20046;-67
2022/11/03 07:44:19;;;;;;;8.05;2.65;;;10.60;99.90;;;;;;5002004;28;20500;-68
2022/11/03 07:46:46;;;;;;;7.18;2.50;;;10.60;99.90;;;;;;5001890;28;20053;-65
2022/11/03 07:49:27;;;;;;;6.18;1.85;;;10.60;99.90;;;;;;5002235;28;20049;-65
2022/11/03 07:51:54;;;;;;;10.52;2.67;;;10.70;99.90;;;;;;5002314;28;20037;-69
2022/11/03 07:54:23;;;;;;;7.20;2.15;;;10.80;99.90;;;;;;5001704;28;20053;-67
2022/11/03 07:56:57;;;;;;;8.18;2.42;;;10.80;99.90;;;;;;5002727;28;20381;-65
2022/11/03 07:59:40;;;;;;;8.63;3.05;;;10.90;99.90;;;;;;5001519;28;20073;-70
2022/11/03 08:02:33;;;;;;;8.73;2.92;;;10.90;99.90;;;;;;5001868;28;20069;-64
2022/11/03 08:04:59;;;;;;;9.90;2.97;;;10.90;99.90;;;;;;5003433;28;20042;-66
2022/11/03 08:07:26;;;;;;;8.05;2.15;;;11.00;99.90;;;;;;5010885;28;20557;-68
2022/11/03 08:09:53;;;;;;;6.35;2.58;;;11.00;99.90;;;;;;5002515;28;20045;-67
2022/11/03 08:12:19;;;;;;;10.85;2.75;;;11.10;99.90;;;;;;5001009;28;20802;-68
2022/11/03 08:14:45;;;;;;;9.88;2.60;;;11.00;99.90;;;;;;5001788;28;20056;-69
2022/11/03 08:17:11;;;;;;;12.90;3.10;;;11.20;99.90;;;;;;5002584;28;20089;-65
2022/11/03 08:19:36;;;;;;;10.77;2.72;;;11.10;99.90;;;;;;5002489;28;20432;-64
2022/11/03 08:22:02;;;;;;;11.18;2.80;;;11.20;99.90;;;;;;5001759;28;20054;-66
2022/11/03 08:24:28;;;;;;;10.00;2.67;;;11.10;99.90;;;;;;5001686;28;20033;-66
2022/11/03 08:26:54;;;;;;;12.05;2.95;;;11.30;99.90;;;;;;5002236;28;20050;-67
2022/11/03 08:29:20;;;;;;;11.05;2.63;;;11.20;99.90;;;;;;5001970;28;20046;-64
2022/11/03 08:31:46;;;;;;;11.90;2.53;;;11.30;99.90;;;;;;4984133;28;20050;-64
2022/11/03 08:34:12;;;;;;;4.80;2.38;;;11.40;99.90;;;;;;5001910;28;20096;-68
2022/11/03 08:36:37;;;;;;;15.05;2.65;;;11.40;99.90;;;;;;5002047;28;20049;-65
2022/11/03 08:39:03;;;;;;;7.63;2.70;;;11.40;99.90;;;;;;5008167;28;20041;-67
2022/11/03 08:41:30;;;;;;;6.97;1.80;;;11.50;99.90;;;;;;5010923;28;20481;-67
2022/11/03 08:43:56;;;;;;;9.50;2.90;;;11.60;99.90;;;;;;5011646;28;20048;-65
2022/11/03 08:46:21;;;;;;;6.80;1.75;;;11.60;99.90;;;;;;5010579;28;20050;-65
2022/11/03 08:48:47;;;;;;;10.90;2.70;;;11.60;99.90;;;;;;4991843;28;20042;-64
2022/11/03 08:51:14;;;;;;;12.93;3.10;;;11.60;99.90;;;;;;5022487;28;20091;-68
2022/11/03 08:53:43;;;;;;;10.75;3.03;;;11.70;99.90;;;;;;5018918;28;20121;-65
2022/11/03 08:56:10;;;;;;;10.05;2.70;;;11.70;99.90;;;;;;5014586;28;20477;-67
2022/11/03 08:58:36;;;;;;;9.40;3.10;;;11.60;99.90;;;;;;5002799;28;20092;-68
2022/11/03 09:01:02;;;;;;;10.85;2.78;;;11.70;99.90;;;;;;5001565;28;20034;-65
2022/11/03 09:03:27;;;;;;;11.88;2.70;;;11.80;99.90;;;;;;5002538;28;20046;-66
2022/11/03 09:05:53;;;;;;;11.45;2.90;;;11.70;99.90;;;;;;5011753;28;20047;-69
2022/11/03 09:08:18;;;;;;;8.68;2.22;;;11.80;99.90;;;;;;5006568;28;20045;-69
2022/11/03 09:10:44;;;;;;;9.05;2.33;;;11.90;99.90;;;;;;5002283;28;20507;-66
2022/11/03 09:13:10;;;;;;;8.02;2.35;;;11.90;99.90;;;;;;5004678;28;20056;-64
2022/11/03 09:15:35;;;;;;;7.28;2.67;;;11.90;99.90;;;;;;5004216;28;20370;-70
2022/11/03 09:18:01;;;;;;;7.00;2.25;;;11.90;99.90;;;;;;5004978;28;20121;-70
2022/11/03 09:20:27;;;;;;;11.45;3.00;;;12.00;99.90;;;;;;5005289;28;20050;-67
2022/11/03 09:22:53;;;;;;;10.98;3.40;;;12.10;99.90;;;;;;5002714;28;20632;-67
2022/11/03 09:25:19;;;;;;;9.18;2.60;;;12.10;99.90;;;;;;5004815;28;20044;-69
2022/11/03 09:27:44;;;;;;;9.15;2.47;;;12.20;99.90;;;;;;5005091;28;20156;-69
2022/11/03 09:30:11;;;;;;;6.75;2.53;;;12.20;99.90;;;;;;5005146;28;20428;-68
2022/11/03 09:32:37;;;;;;;10.02;2.58;;;12.30;99.90;;;;;;4987312;28;20405;-65
2022/11/03 09:35:03;;;;;;;11.52;2.90;;;12.40;99.90;;;;;;5005295;28;20685;-68
2022/11/03 09:37:29;;;;;;;9.68;2.42;;;12.50;99.90;;;;;;4987584;28;20050;-64
2022/11/03 09:39:55;;;;;;;6.10;1.75;;;12.40;99.90;;;;;;5004832;28;20103;-66
2022/11/03 09:42:21;;;;;;;8.90;2.70;;;12.40;99.90;;;;;;5004555;28;20729;-65
2022/11/03 09:44:49;;;;;;;6.43;2.00;;;12.50;99.90;;;;;;5004321;28;20811;-68
2022/11/03 09:47:42;;;;;;;9.43;2.95;;;12.60;99.90;;;;;;5010352;28;20084;-69
2022/11/03 09:50:18;;;;;;;10.60;2.60;;;12.60;99.90;;;;;;5012270;28;20045;-68
2022/11/03 09:52:44;;;;;;;10.50;2.80;;;12.70;99.90;;;;;;5013032;28;20108;-65
2022/11/03 09:55:24;;;;;;;6.40;2.17;;;12.80;99.90;;;;;;5015061;28;20038;-67
2022/11/03 09:57:59;;;;;;;10.68;2.63;;;12.80;99.90;;;;;;5012106;28;20073;-69
2022/11/03 10:00:26;;;;;;;9.93;3.22;;;12.80;99.90;;;;;;5013954;28;20396;-66
2022/11/03 10:02:53;;;;;;;6.07;2.10;;;12.70;99.90;;;;;;5014388;28;20435;-67
2022/11/03 10:05:25;;;;;;;13.82;2.60;;;12.80;99.90;;;;;;5016637;28;20051;-64
2022/11/03 10:07:55;;;;;;;6.80;2.33;;;12.90;99.90;;;;;;5014478;28;20113;-69
2022/11/03 10:10:21;;;;;;;6.25;2.05;;;13.00;99.90;;;;;;5018958;28;20049;-67
2022/11/03 10:12:52;;;;;;;8.75;2.95;;;13.00;99.90;;;;;;5024870;28;20045;-67
2022/11/03 10:15:20;;;;;;;6.75;2.38;;;13.10;99.90;;;;;;5023051;28;20516;-69
2022/11/03 10:17:46;;;;;;;8.50;2.78;;;13.30;99.90;;;;;;5023879;28;20042;-64
2022/11/03 10:20:14;;;;;;;10.75;3.08;;;13.30;99.90;;;;;;5023107;28;20045;-66
2022/11/03 10:22:42;;;;;;;6.47;2.03;;;13.30;99.90;;;;;;5022488;28;20136;-69
2022/11/03 10:25:37;;;;;;;7.07;2.50;;;13.40;99.90;;;;;;5023785;28;20400;-65
2022/11/03 10:28:25;;;;;;;11.88;2.78;;;13.40;99.90;;;;;;5008893;28;20073;-64
2022/11/03 10:31:00;;;;;;;7.65;2.70;;;13.70;99.90;;;;;;5003339;28;20041;-68
2022/11/03 10:33:28;;;;;;;4.13;1.67;;;14.10;99.90;;;;;;5002577;28;20050;-65
2022/11/03 10:36:20;;;;;;;9.07;2.60;;;14.10;99.90;;;;;;5003392;28;20112;-70
2022/11/03 10:38:49;;;;;;;8.27;2.42;;;14.00;99.90;;;;;;5003631;28;20669;-66
2022/11/03 10:41:18;;;;;;;10.23;2.58;;;14.00;99.90;;;;;;4987308;28;20042;-68
2022/11/03 10:44:09;;;;;;;10.35;3.17;;;14.00;99.90;;;;;;5004557;28;20049;-67
2022/11/03 10:46:36;;;;;;;8.77;2.60;;;14.00;99.90;;;;;;5003378;28;20052;-69
2022/11/03 10:49:15;;;;;;;8.68;2.35;;;14.00;99.90;;;;;;4985946;28;20129;-68
2022/11/03 10:51:42;;;;;;;9.98;3.22;;;14.20;99.90;;;;;;5002140;28;20675;-69
2022/11/03 10:54:13;;;;;;;7.65;2.33;;;14.20;99.90;;;;;;5002275;28;20081;-66
2022/11/03 10:56:40;;;;;;;9.82;2.30;;;14.30;99.90;;;;;;5003072;28;20057;-69
2022/11/03 10:59:09;;;;;;;7.80;2.50;;;14.30;99.90;;;;;;5001821;28;20378;-66
2022/11/03 11:01:36;;;;;;;9.23;2.65;;;14.40;99.90;;;;;;5002664;28;20088;-67
2022/11/03 11:04:03;;;;;;;8.15;2.20;;;14.60;99.90;;;;;;5003073;28;20061;-68
2022/11/03 11:06:30;;;;;;;9.30;2.90;;;14.50;99.90;;;;;;5013250;28;20046;-68
2022/11/03 11:09:04;;;;;;;10.25;3.10;;;14.50;99.90;;;;;;5002334;28;20072;-67
2022/11/03 11:11:29;;;;;;;10.25;2.65;;;14.50;99.90;;;;;;5001904;28;20057;-65
2022/11/03 11:14:29;;;;;;;7.72;2.15;;;14.50;99.90;;;;;;5000773;28;20100;-66
2022/11/03 11:16:57;;;;;;;6.53;2.00;;;14.40;99.90;;;;;;5000999;28;20046;-67
2022/11/03 11:19:24;;;;;;;10.85;3.10;;;14.40;99.90;;;;;;4984645;28;20124;-64
2022/11/03 11:21:53;;;;;;;7.88;2.63;;;14.40;99.90;;;;;;5001976;28;20132;-66
2022/11/03 11:24:41;;;;;;;11.57;2.75;;;14.30;99.90;;;;;;5002095;28;20116;-67
2022/11/03 11:27:32;;;;;;;5.75;1.95;;;14.30;99.90;;;;;;5005425;28;20041;-68
2022/11/03 11:30:03;;;;;;;11.07;2.70;;;14.20;99.90;;;;;;5018241;28;20052;-69
2022/11/03 11:32:35;;;;;;;8.73;2.80;;;14.40;99.90;;;;;;4996726;28;20387;-65
2022/11/03 11:35:01;;;;;;;7.78;2.33;;;14.60;99.90;;;;;;5002638;28;20240;-67
2022/11/03 11:37:27;;;;;;;10.70;2.92;;;14.60;99.90;;;;;;5015683;28;20128;-66
2022/11/03 11:39:53;;;;;;;5.47;1.77;;;14.60;99.90;;;;;;5021808;28;20143;-66
2022/11/03 11:42:19;;;;;;;6.75;2.15;;;14.60;99.90;;;;;;5021431;28;20528;-66
2022/11/03 11:44:52;;;;;;;8.30;2.08;;;14.50;99.90;;;;;;5020752;28;20041;-69
2022/11/03 11:47:26;;;;;;;10.13;2.78;;;14.50;99.90;;;;;;5020791;28;20496;-66
2022/11/03 11:50:04;;;;;;;6.10;2.13;;;14.60;99.90;;;;;;5021758;28;20468;-65
2022/11/03 11:52:35;;;;;;;7.07;2.42;;;14.60;99.90;;;;;;5020309;28;20191;-68
2022/11/03 11:55:00;;;;;;;9.20;2.50;;;14.60;99.90;;;;;;5021390;28;20048;-68
2022/11/03 11:57:32;;;;;;;7.82;2.30;;;14.70;99.90;;;;;;5021640;28;20038;-66
2022/11/03 11:59:58;;;;;;;6.30;2.10;;;14.70;99.90;;;;;;5019348;28;20056;-65
2022/11/03 12:02:28;;;;;;;6.63;2.05;;;14.70;99.90;;;;;;5003656;28;20041;-67
2022/11/03 12:05:02;;;;;;;6.78;2.10;;;14.70;99.90;;;;;;5018219;28;20050;-69
2022/11/03 12:07:35;;;;;;;7.13;2.30;;;14.60;99.90;;;;;;5009983;28;20574;-69
2022/11/03 12:10:18;;;;;;;8.55;2.60;;;14.60;99.90;;;;;;5001824;28;20289;-67
2022/11/03 12:12:44;;;;;;;9.82;2.50;;;14.50;99.90;;;;;;5001412;28;20825;-66
2022/11/03 12:15:47;;;;;;;9.88;2.72;;;14.50;99.90;;;;;;5001985;28;20046;-64
2022/11/03 12:18:36;;;;;;;8.00;2.10;;;14.50;99.90;;;;;;5001418;28;20045;-64
2022/11/03 12:21:10;;;;;;;8.05;2.53;;;14.50;99.90;;;;;;5003223;28;20042;-65
2022/11/03 12:23:46;;;;;;;10.93;2.50;;;14.60;99.90;;;;;;5020232;28;20034;-66
2022/11/03 12:26:40;;;;;;;7.63;2.30;;;14.60;99.90;;;;;;5021058;28;20054;-67
2022/11/03 12:29:06;;;;;;;7.68;1.52;;;14.60;99.90;;;;;;5020639;28;20041;-69
2022/11/03 12:31:31;;;;;;;10.35;2.58;;;14.50;99.90;;;;;;5003424;28;20099;-66
2022/11/03 12:33:57;;;;;;;9.70;2.30;;;14.60;99.90;;;;;;5022038;28;20544;-66
2022/11/03 12:36:23;;;;;;;5.40;2.10;;;14.60;99.90;;;;;;5021050;28;20056;-68
2022/11/03 12:38:49;;;;;;;9.50;2.22;;;14.60;99.90;;;;;;5022064;28;20046;-69
2022/11/03 12:41:21;;;;;;;7.63;2.40;;;14.60;99.90;;;;;;5021923;28;20107;-66
2022/11/03 12:43:47;;;;;;;7.18;2.30;;;14.50;99.90;;;;;;5001969;28;20464;-64
2022/11/03 12:46:18;;;;;;;8.77;1.95;;;14.50;99.90;;;;;;5023009;28;20566;-68
2022/11/03 12:48:45;;;;;;;8.52;2.35;;;14.50;99.90;;;;;;5007504;28;20042;-65
2022/11/03 12:51:22;;;;;;;6.88;2.08;;;14.40;99.90;;;;;;5025042;28;20053;-69
2022/11/03 12:53:47;;;;;;;9.02;2.15;;;14.40;99.90;;;;;;5024981;28;20048;-69
2022/11/03 12:56:14;;;;;;;9.02;2.03;;;14.30;99.90;;;;;;5024409;28;20053;-69
2022/11/03 12:58:40;;;;;;;8.25;2.30;;;14.40;99.90;;;;;;5023117;28;20052;-67
2022/11/03 13:01:06;;;;;;;6.32;2.03;;;14.30;99.90;;;;;;5024204;28;20648;-62
2022/11/03 13:03:33;;;;;;;10.82;2.13;;;14.30;99.90;;;;;;5025432;28;20739;-69
2022/11/03 13:05:59;;;;;;;6.45;1.80;;;14.30;99.90;;;;;;5000637;28;20057;-60
2022/11/03 13:08:25;;;;;;;7.15;2.25;;;14.30;99.90;;;;;;5005562;28;20045;-67
2022/11/03 13:10:51;;;;;;;5.57;1.60;;;14.20;99.90;;;;;;5005745;28;20045;-67
2022/11/03 13:13:18;;;;;;;7.20;2.00;;;14.20;99.90;;;;;;5004800;28;20058;-67
2022/11/03 13:15:44;;;;;;;6.13;2.05;;;14.20;99.90;;;;;;5003358;28;20911;-63